Terminal Aerodrome Forecast
Issued by NWS

Home | Current Version | Previous Version | Text Only | Print | Product List | Glossary On
Versions: 1 2 3 4 5 6 7 8 9 10 11 12 13 14 15 16 17 18 19 20 21 22 23 24 25 26 27
000
FTUS44 KFWD 301738
TAFDAL
TAF
KDAL 301738Z 3018/3118 23012KT P6SM FEW150 BKN300
     FM302100 21009KT P6SM VCTS SCT090CB
     FM310100 17008KT P6SM SCT100=

USA.gov is the U.S. government's official web portal to all federal, state and local government web resources and services.